Flight Track Log - Related Links

Times and Time Zones

All times are in EDT time to prevent confusion due to time zone crossing. See the FLG3780 flight status page for this flight to view local times or setup timezone preferences in your user account.

Time Position Orientation Groundspeed Altitude Reporting Facility
EDT Latitude Longitude Course Direction KTS MPH feet Rate Location/Type
Tue 12:50:04 PM 38.0789 -85.8244 344° North 306 352 5,200  Level Indianapolis Center
Tue 12:51:06 PM 38.1494 -85.8597 339° North 288 331 7,900 2,323 Climbing Indianapolis Center
Tue 12:52:08 PM 38.2297 -85.8786 350° North 294 338 10,000 1,659 Climbing Indianapolis Center
Tue 12:53:09 PM 38.3158 -85.9014 348° North 316 364 11,300 1,171 Climbing Indianapolis Center
Tue 12:54:00 PM 38.2607 -85.8210 270° West  Level Estimated
Tue 12:54:11 PM 38.4150 -85.9242 350° North 357 411 12,400  Level Indianapolis Center
Tue 12:55:00 PM 38.3473 -85.9057 344° North  Level Estimated
Tue 12:55:13 PM 38.5172 -85.9500 349° North 372 428 13,800  Level Indianapolis Center
Tue 12:56:15 PM 38.6231 -85.9764 349° North 385 443 14,900 1,268 Climbing Indianapolis Center
Tue 12:57:16 PM 38.7508 -86.0075 349° North 390 449 16,400 1,317 Climbing Indianapolis Center
Tue 12:58:18 PM 38.8533 -86.0603 338° Northwest 396 456 17,600 968 Climbing Indianapolis Center
Tue 12:59:20 PM 38.9514 -86.1161 336° Northwest 398 458 18,400 780 Climbing Indianapolis Center
Tue 01:00:21 PM 39.0553 -86.1769 336° Northwest 408 470 19,200 878 Climbing Indianapolis Center
Tue 01:01:23 PM 39.1600 -86.2372 336° Northwest 412 474 20,200 871 Climbing Indianapolis Center
Tue 01:02:25 PM 39.2472 -86.3333 320° Northwest 412 474 21,000 732 Climbing Indianapolis Center
Tue 01:03:26 PM 39.3375 -86.4317 320° Northwest 421 484 21,700 829 Climbing Indianapolis Center
Tue 01:04:28 PM 39.4483 -86.5447 322° Northwest 420 483 22,700 726 Climbing Indianapolis Center
Tue 01:05:30 PM 39.5622 -86.6031 338° Northwest 437 503 23,200 532 Climbing Indianapolis Center
Tue 01:06:32 PM 39.6794 -86.6558 341° North 442 509 23,800 537 Climbing Indianapolis Center
Tue 01:07:33 PM 39.7989 -86.7092 341° North 445 512 24,300 488 Climbing Indianapolis Center
Tue 01:08:35 PM 39.9189 -86.7617 341° North 449 517 24,800 484 Climbing Indianapolis Center
Tue 01:09:37 PM 40.0394 -86.8172 341° North 453 521 25,300 470 Climbing Indianapolis Center
Tue 01:10:30 PM 40.1353 -86.8617 340° North 457 526 25,700 522 Climbing Chicago Center
Tue 01:11:32 PM 40.2811 -86.9272 341° North 461 531 26,300 532 Climbing Chicago Center
Tue 01:12:34 PM 40.4025 -86.9831 341° North 463 533 26,800 484 Climbing Chicago Center
Tue 01:13:36 PM 40.5228 -87.0394 340° North 461 531 27,300 484 Climbing Chicago Center
Tue 01:14:38 PM 40.6536 -87.0972 341° North 462 532 27,800 484 Climbing Chicago Center
Tue 01:15:40 PM 40.7722 -87.1511 341° North 456 525 28,300 484 Climbing Chicago Center
Tue 01:16:42 PM 40.8900 -87.2075 340° North 454 522 28,800 484 Climbing Chicago Center
Tue 01:17:44 PM 41.0072 -87.2614 341° North 450 518 29,300 581 Climbing Chicago Center
Tue 01:18:46 PM 41.1464 -87.3272 340° North 447 514 30,000 339 Climbing Chicago Center
Tue 01:19:48 PM 41.2606 -87.3811 340° North 443 510 30,000  Level Chicago Center
Tue 01:20:50 PM 41.3756 -87.4353 341° North 443 510 30,000  Level Chicago Center
Tue 01:21:53 PM 41.4933 -87.4914 340° North 452 520 30,000  Level Chicago Center
Tue 01:22:55 PM 41.6339 -87.5578 341° North 455 524 30,000  Level Chicago Center
Tue 01:23:57 PM 41.7508 -87.6153 340° North 455 524 30,000  Level Chicago Center
Tue 01:24:59 PM 41.8697 -87.6703 341° North 457 526 30,000  Level Chicago Center
Tue 01:26:01 PM 41.9883 -87.7289 340° North 459 528 30,000  Level Chicago Center
Tue 01:27:03 PM 42.1067 -87.7861 340° North 456 525 30,000  Level Chicago Center
Tue 01:28:05 PM 42.2486 -87.8553 340° North 457 526 30,000  Level Chicago Center
Tue 01:29:07 PM 42.3658 -87.9122 340° North 455 524 30,000  Level Chicago Center
Tue 01:30:09 PM 42.4847 -87.9686 341° North 454 522 30,000  Level Chicago Center
Tue 01:31:11 PM 42.6039 -88.0289 340° North 455 524 30,000  Level Chicago Center
Tue 01:32:13 PM 42.7261 -88.1328 328° Northwest 452 520 30,000  Level Chicago Center
Tue 01:33:15 PM 42.8169 -88.2522 316° Northwest 454 522 30,000  Level Chicago Center
Tue 01:34:18 PM 42.9081 -88.3717 316° Northwest 452 520 30,000  Level Chicago Center
Tue 01:35:20 PM 42.9981 -88.4925 316° Northwest 451 519 30,000  Level Chicago Center
Tue 01:36:22 PM 43.0892 -88.6136 316° Northwest 452 520 30,000  Level Chicago Center
Tue 01:37:24 PM 43.1800 -88.7342 316° Northwest 451 519 30,000  Level Chicago Center
Tue 01:38:26 PM 43.2856 -88.8772 315° West 452 520 30,000  Level Chicago Center
Tue 01:39:28 PM 43.3761 -88.9981 316° Northwest 451 519 30,000  Level Chicago Center
Tue 01:40:30 PM 43.4653 -89.1197 315° West 450 518 30,000  Level Chicago Center
Tue 01:41:32 PM 43.5550 -89.2425 315° West 452 520 30,000  Level Chicago Center
Tue 01:42:34 PM 43.6453 -89.3653 315° West 453 521 30,000  Level Chicago Center
Tue 01:43:36 PM 43.7358 -89.4875 316° Northwest 454 522 30,000  Level Chicago Center
Tue 01:44:39 PM 43.8400 -89.6317 315° West 453 521 30,000  Level Chicago Center
Tue 01:45:41 PM 43.9281 -89.7533 315° West 449 517 30,000  Level Chicago Center
Tue 01:46:43 PM 44.0144 -89.8725 315° West 439 505 30,000  Level Chicago Center
Tue 01:47:45 PM 44.0942 -89.9922 313° West 426 490 30,000  Level Chicago Center
Tue 01:48:16 PM 44.1294 -90.0589 306° West 429 494 30,000  Level Minneapolis Center
Tue 01:49:18 PM 44.2025 -90.1917 308° West 433 498 30,000  Level Minneapolis Center
Tue 01:50:20 PM 44.2644 -90.3033 308° West 435 501 30,000 -528 Level Minneapolis Center
Tue 01:51:23 PM 44.3644 -90.4831 308° West 438 504 28,900 -1,008 Descending Minneapolis Center
Tue 01:52:25 PM 44.4378 -90.6156 308° West 433 498 27,900 -968 Descending Minneapolis Center
Tue 01:53:27 PM 44.5075 -90.7467 307° West 422 486 26,900 -1,016 Descending Minneapolis Center
Tue 01:54:29 PM 44.5772 -90.8747 307° West 416 479 25,800 -1,258 Descending Minneapolis Center
Tue 01:55:31 PM 44.6478 -91.0022 308° West 412 474 24,300 -871 Descending Minneapolis Center
Tue 01:56:33 PM 44.7092 -91.1300 304° West 401 461 24,000 -677 Descending Minneapolis Center
Tue 01:57:35 PM 44.7592 -91.3042 292° West 402 463 22,900 -1,500 Descending Minneapolis Center
Tue 01:58:37 PM 44.8039 -91.4528 293° West 410 472 20,900 -1,875 Descending Minneapolis Center
Tue 01:59:43 PM 44.8475 -91.5956 293° West 403 464 18,900 -1,875 Descending Minneapolis Center
Tue 02:00:45 PM 44.8889 -91.7356 293° West 395 455 16,900 -2,129 Descending Minneapolis Center
Tue 02:01:47 PM 44.9361 -91.8967 293° West 376 433 14,500 -2,129 Descending Minneapolis Center
Tue 02:02:49 PM 44.9742 -92.0264 293° West 363 418 12,500 -1,680 Descending Minneapolis Center
Tue 02:03:52 PM 45.0108 -92.1531 292° West 352 405 11,000 -720 Descending Minneapolis Center
Tue 02:04:54 PM 45.0450 -92.2761 291° West 340 391 11,000  Level Minneapolis Center
Tue 02:05:56 PM 45.0297 -92.4111 261° West 351 404 11,000  Level Minneapolis Center
Tue 02:06:58 PM 45.0044 -92.5728 258° West 353 406 11,000  Level Minneapolis Center
Tue 02:08:00 PM 44.9831 -92.7075 257° West 354 407 11,000 -290 Level Minneapolis Center
Tue 02:09:02 PM 44.9622 -92.8367 257° West 341 392 10,400 -968 Descending Minneapolis Center
Tue 02:10:04 PM 44.9447 -92.9458 257° West 292 336 9,000 -1,161 Descending Minneapolis Center
Tue 02:11:06 PM 44.9281 -93.0486 257° West 275 316 8,000 -629 Descending Minneapolis Center
Tue 02:12:08 PM 44.9661 -93.1617 295° West 278 320 7,700 -919 Descending Minneapolis Center
Tue 02:13:10 PM 45.0061 -93.2511 302° West 273 314 6,100 -816 Descending Minneapolis Center
Tue 02:14:13 PM 45.0461 -93.3383 303° West 268 308 6,000 -876 Descending Minneapolis Center
Tue 02:15:27 PM 45.0844 -93.4256 302° West 264 304 4,100 -882 Descending Minneapolis Center
Tue 02:16:29 PM 45.0378 -93.4581 206° Southwest 199 229 4,000 -48 Descending Minneapolis Center
Tue 02:17:31 PM 44.9919 -93.3928 135° Southeast 200 230 4,000 -476 Level Minneapolis Center
Tue 02:18:35 PM 44.9494 -93.3500 145° Southeast 189 217 3,000 -857 Descending Minneapolis Center
Tue 02:19:37 PM 44.9283 -93.3033 123° Southeast 142 163 2,200 -726 Descending Minneapolis Center
Tue 02:20:39 PM 44.9089 -93.2572 121° Southeast 136 157 1,500 -677 Descending Minneapolis Center
Tue 02:22:00 PM 44.8820 -93.2218 210° Southwest  Level Estimated
Tue 02:29:00 PM 44.8820 -93.2218 210° Southwest  Level Estimated

Login

Don't have an account? Register now (free) for customized features, flight alerts, and more!